Orlando, Florida
Traffic Map
Current Weather Conditions
Orlando, Florida
Clear
Clear
24°
Feels Like: 24°
Wind Chill: 24° Ceiling: Unl
Heat Index: 24° Visibility: 8mi
Dew Point: 24° Wind: 3mph
Humidity: 97% Direction: 110° (ESE)
Pressure: 29.97in Gusts: 0mph
Raw Report DataKORL 311053Z AUTO 11003KT 8SM CLR 24/24 A2997 RMK AO2 SLP149 T02440239
Traffic Incident Summary
Active as of:
Severity:
Category:
InformationThere was an issue retrieving the traffic information for this location. Please try a different location or try again shortly.
Advertisements
Track Severe Weather on mobile